sensor_id;sensor_type;location;lat;lon;timestamp;P1;durP1;ratioP1;P2;durP2;ratioP2
6374;SDS011;35400;45.472;-122.822;2022-07-29T00:01:49;3.33;;;3.13;;
6374;SDS011;35400;45.472;-122.822;2022-07-29T00:04:17;4.82;;;4.00;;
6374;SDS011;35400;45.472;-122.822;2022-07-29T00:06:45;4.43;;;4.03;;
6374;SDS011;35400;45.472;-122.822;2022-07-29T00:09:11;3.90;;;3.60;;
6374;SDS011;35400;45.472;-122.822;2022-07-29T00:11:37;4.45;;;3.67;;
6374;SDS011;35400;45.472;-122.822;2022-07-29T00:14:04;3.60;;;3.40;;
6374;SDS011;35400;45.472;-122.822;2022-07-29T00:16:30;4.55;;;3.90;;
6374;SDS011;35400;45.472;-122.822;2022-07-29T00:18:57;4.15;;;3.75;;
6374;SDS011;35400;45.472;-122.822;2022-07-29T00:21:23;4.50;;;3.42;;
6374;SDS011;35400;45.472;-122.822;2022-07-29T00:23:49;3.90;;;3.50;;
6374;SDS011;35400;45.472;-122.822;2022-07-29T00:26:16;3.60;;;3.20;;
6374;SDS011;35400;45.472;-122.822;2022-07-29T00:28:43;3.97;;;3.35;;
6374;SDS011;35400;45.472;-122.822;2022-07-29T00:31:09;5.55;;;3.78;;
6374;SDS011;35400;45.472;-122.822;2022-07-29T00:33:35;3.88;;;3.65;;
6374;SDS011;35400;45.472;-122.822;2022-07-29T00:36:02;3.83;;;3.53;;
6374;SDS011;35400;45.472;-122.822;2022-07-29T00:38:29;3.60;;;3.35;;
6374;SDS011;35400;45.472;-122.822;2022-07-29T00:40:55;3.55;;;3.33;;
6374;SDS011;35400;45.472;-122.822;2022-07-29T00:43:22;5.30;;;3.30;;
6374;SDS011;35400;45.472;-122.822;2022-07-29T00:45:48;3.80;;;3.35;;
6374;SDS011;35400;45.472;-122.822;2022-07-29T00:48:14;4.03;;;3.70;;
6374;SDS011;35400;45.472;-122.822;2022-07-29T00:50:41;4.03;;;3.72;;
6374;SDS011;35400;45.472;-122.822;2022-07-29T00:53:07;4.60;;;3.05;;
6374;SDS011;35400;45.472;-122.822;2022-07-29T00:55:36;3.33;;;3.13;;
6374;SDS011;35400;45.472;-122.822;2022-07-29T00:58:03;3.38;;;3.10;;
6374;SDS011;35400;45.472;-122.822;2022-07-29T01:00:30;3.72;;;3.35;;
6374;SDS011;35400;45.472;-122.822;2022-07-29T01:02:57;3.53;;;3.33;;
6374;SDS011;35400;45.472;-122.822;2022-07-29T01:05:24;4.18;;;3.80;;
6374;SDS011;35400;45.472;-122.822;2022-07-29T01:07:54;3.30;;;3.00;;
6374;SDS011;35400;45.472;-122.822;2022-07-29T01:10:22;3.80;;;3.50;;
6374;SDS011;35400;45.472;-122.822;2022-07-29T01:12:51;4.88;;;3.42;;
6374;SDS011;35400;45.472;-122.822;2022-07-29T01:15:19;4.05;;;3.65;;
6374;SDS011;35400;45.472;-122.822;2022-07-29T01:17:52;3.42;;;3.13;;
6374;SDS011;35400;45.472;-122.822;2022-07-29T01:31:59;3.67;;;3.38;;
6374;SDS011;35400;45.472;-122.822;2022-07-29T01:37:20;3.60;;;3.25;;
6374;SDS011;35400;45.472;-122.822;2022-07-29T01:40:04;3.38;;;3.08;;
6374;SDS011;35400;45.472;-122.822;2022-07-29T01:42:44;3.50;;;3.25;;
6374;SDS011;35400;45.472;-122.822;2022-07-29T01:45:18;3.42;;;3.13;;
6374;SDS011;35400;45.472;-122.822;2022-07-29T01:50:36;3.85;;;3.20;;
6374;SDS011;35400;45.472;-122.822;2022-07-29T01:53:12;3.88;;;3.50;;
6374;SDS011;35400;45.472;-122.822;2022-07-29T01:55:42;3.63;;;3.38;;
6374;SDS011;35400;45.472;-122.822;2022-07-29T01:58:11;3.50;;;3.20;;
6374;SDS011;35400;45.472;-122.822;2022-07-29T02:00:40;3.60;;;3.05;;
6374;SDS011;35400;45.472;-122.822;2022-07-29T02:03:08;3.42;;;3.20;;
6374;SDS011;35400;45.472;-122.822;2022-07-29T02:05:37;3.88;;;3.40;;
6374;SDS011;35400;45.472;-122.822;2022-07-29T02:08:06;4.05;;;3.30;;
6374;SDS011;35400;45.472;-122.822;2022-07-29T02:10:35;3.60;;;3.30;;
6374;SDS011;35400;45.472;-122.822;2022-07-29T02:13:03;3.85;;;3.53;;
6374;SDS011;35400;45.472;-122.822;2022-07-29T02:15:32;4.55;;;3.55;;
6374;SDS011;35400;45.472;-122.822;2022-07-29T02:18:02;4.30;;;3.90;;
6374;SDS011;35400;45.472;-122.822;2022-07-29T02:20:32;5.40;;;3.53;;
6374;SDS011;35400;45.472;-122.822;2022-07-29T02:23:00;4.53;;;3.45;;
6374;SDS011;35400;45.472;-122.822;2022-07-29T02:25:27;4.28;;;3.85;;
6374;SDS011;35400;45.472;-122.822;2022-07-29T02:27:55;3.90;;;3.60;;
6374;SDS011;35400;45.472;-122.822;2022-07-29T02:30:24;3.85;;;3.55;;
6374;SDS011;35400;45.472;-122.822;2022-07-29T02:32:52;4.05;;;3.75;;
6374;SDS011;35400;45.472;-122.822;2022-07-29T02:35:20;4.43;;;3.50;;
6374;SDS011;35400;45.472;-122.822;2022-07-29T02:37:47;3.72;;;3.47;;
6374;SDS011;35400;45.472;-122.822;2022-07-29T02:40:34;4.10;;;3.60;;
6374;SDS011;35400;45.472;-122.822;2022-07-29T02:43:03;4.03;;;3.70;;
6374;SDS011;35400;45.472;-122.822;2022-07-29T02:45:32;3.88;;;3.58;;
6374;SDS011;35400;45.472;-122.822;2022-07-29T02:47:59;4.00;;;3.70;;
6374;SDS011;35400;45.472;-122.822;2022-07-29T02:50:40;4.80;;;3.85;;
6374;SDS011;35400;45.472;-122.822;2022-07-29T02:53:16;4.63;;;3.33;;
6374;SDS011;35400;45.472;-122.822;2022-07-29T02:55:48;4.10;;;3.67;;
6374;SDS011;35400;45.472;-122.822;2022-07-29T02:58:21;3.80;;;3.08;;
6374;SDS011;35400;45.472;-122.822;2022-07-29T03:00:55;4.32;;;3.65;;
6374;SDS011;35400;45.472;-122.822;2022-07-29T03:03:25;4.10;;;3.30;;
6374;SDS011;35400;45.472;-122.822;2022-07-29T03:05:56;3.95;;;3.65;;
6374;SDS011;35400;45.472;-122.822;2022-07-29T03:08:25;3.58;;;3.35;;
6374;SDS011;35400;45.472;-122.822;2022-07-29T03:10:53;4.25;;;3.45;;
6374;SDS011;35400;45.472;-122.822;2022-07-29T03:13:20;4.00;;;3.50;;
6374;SDS011;35400;45.472;-122.822;2022-07-29T03:15:48;4.05;;;3.72;;
6374;SDS011;35400;45.472;-122.822;2022-07-29T03:18:16;3.60;;;3.40;;
6374;SDS011;35400;45.472;-122.822;2022-07-29T03:20:43;4.32;;;3.88;;
6374;SDS011;35400;45.472;-122.822;2022-07-29T03:23:09;3.63;;;3.33;;
6374;SDS011;35400;45.472;-122.822;2022-07-29T03:25:36;3.53;;;3.15;;
6374;SDS011;35400;45.472;-122.822;2022-07-29T03:28:02;3.60;;;3.30;;
6374;SDS011;35400;45.472;-122.822;2022-07-29T03:30:29;3.90;;;3.60;;
6374;SDS011;35400;45.472;-122.822;2022-07-29T03:32:55;3.58;;;3.22;;
6374;SDS011;35400;45.472;-122.822;2022-07-29T03:35:22;3.70;;;3.45;;
6374;SDS011;35400;45.472;-122.822;2022-07-29T03:37:49;3.63;;;3.40;;
6374;SDS011;35400;45.472;-122.822;2022-07-29T03:40:22;3.60;;;3.30;;
6374;SDS011;35400;45.472;-122.822;2022-07-29T03:42:53;3.47;;;3.17;;
6374;SDS011;35400;45.472;-122.822;2022-07-29T03:45:20;3.80;;;3.50;;
6374;SDS011;35400;45.472;-122.822;2022-07-29T03:47:50;3.95;;;3.65;;
6374;SDS011;35400;45.472;-122.822;2022-07-29T03:50:20;3.47;;;3.22;;
6374;SDS011;35400;45.472;-122.822;2022-07-29T03:52:50;3.20;;;3.00;;
6374;SDS011;35400;45.472;-122.822;2022-07-29T03:55:17;3.30;;;3.10;;
6374;SDS011;35400;45.472;-122.822;2022-07-29T03:57:44;3.17;;;2.97;;
6374;SDS011;35400;45.472;-122.822;2022-07-29T04:00:12;2.85;;;2.65;;
6374;SDS011;35400;45.472;-122.822;2022-07-29T04:02:40;3.22;;;3.03;;
6374;SDS011;35400;45.472;-122.822;2022-07-29T04:05:12;3.63;;;3.25;;
6374;SDS011;35400;45.472;-122.822;2022-07-29T04:07:40;4.07;;;3.33;;
6374;SDS011;35400;45.472;-122.822;2022-07-29T04:10:08;3.67;;;3.30;;
6374;SDS011;35400;45.472;-122.822;2022-07-29T04:12:35;3.55;;;3.25;;
6374;SDS011;35400;45.472;-122.822;2022-07-29T04:15:04;3.75;;;3.45;;
6374;SDS011;35400;45.472;-122.822;2022-07-29T04:17:31;3.75;;;3.45;;
6374;SDS011;35400;45.472;-122.822;2022-07-29T04:19:57;3.90;;;3.60;;
6374;SDS011;35400;45.472;-122.822;2022-07-29T04:22:24;4.47;;;3.95;;
6374;SDS011;35400;45.472;-122.822;2022-07-29T04:24:50;3.70;;;3.45;;
6374;SDS011;35400;45.472;-122.822;2022-07-29T04:27:17;4.13;;;3.72;;
6374;SDS011;35400;45.472;-122.822;2022-07-29T04:29:43;3.88;;;3.58;;
6374;SDS011;35400;45.472;-122.822;2022-07-29T04:32:10;4.10;;;3.90;;
6374;SDS011;35400;45.472;-122.822;2022-07-29T04:34:36;4.53;;;4.18;;
6374;SDS011;35400;45.472;-122.822;2022-07-29T04:37:03;4.53;;;4.15;;
6374;SDS011;35400;45.472;-122.822;2022-07-29T04:39:29;3.90;;;3.60;;
6374;SDS011;35400;45.472;-122.822;2022-07-29T04:41:56;4.25;;;3.95;;
6374;SDS011;35400;45.472;-122.822;2022-07-29T04:44:22;3.50;;;3.28;;
6374;SDS011;35400;45.472;-122.822;2022-07-29T04:46:49;4.00;;;3.70;;
6374;SDS011;35400;45.472;-122.822;2022-07-29T04:49:15;3.55;;;3.25;;
6374;SDS011;35400;45.472;-122.822;2022-07-29T04:51:42;3.28;;;3.08;;
6374;SDS011;35400;45.472;-122.822;2022-07-29T04:54:08;3.95;;;3.65;;
6374;SDS011;35400;45.472;-122.822;2022-07-29T04:56:35;3.97;;;3.67;;
6374;SDS011;35400;45.472;-122.822;2022-07-29T04:59:01;4.00;;;3.70;;
6374;SDS011;35400;45.472;-122.822;2022-07-29T05:01:29;3.67;;;3.47;;
6374;SDS011;35400;45.472;-122.822;2022-07-29T05:03:55;3.25;;;3.05;;
6374;SDS011;35400;45.472;-122.822;2022-07-29T05:06:21;3.30;;;3.10;;
6374;SDS011;35400;45.472;-122.822;2022-07-29T05:08:48;3.42;;;3.13;;
6374;SDS011;35400;45.472;-122.822;2022-07-29T05:11:14;3.45;;;3.15;;
6374;SDS011;35400;45.472;-122.822;2022-07-29T05:13:41;3.33;;;3.13;;
6374;SDS011;35400;45.472;-122.822;2022-07-29T05:16:08;2.90;;;2.70;;
6374;SDS011;35400;45.472;-122.822;2022-07-29T05:18:35;3.05;;;2.85;;
6374;SDS011;35400;45.472;-122.822;2022-07-29T05:21:01;3.10;;;2.85;;
6374;SDS011;35400;45.472;-122.822;2022-07-29T05:23:28;3.30;;;3.00;;
6374;SDS011;35400;45.472;-122.822;2022-07-29T05:25:54;2.67;;;2.47;;
6374;SDS011;35400;45.472;-122.822;2022-07-29T05:28:20;4.63;;;2.80;;
6374;SDS011;35400;45.472;-122.822;2022-07-29T05:30:47;2.90;;;2.70;;
6374;SDS011;35400;45.472;-122.822;2022-07-29T05:33:14;3.60;;;3.00;;
6374;SDS011;35400;45.472;-122.822;2022-07-29T05:35:40;3.53;;;2.63;;
6374;SDS011;35400;45.472;-122.822;2022-07-29T05:38:07;2.85;;;2.65;;
6374;SDS011;35400;45.472;-122.822;2022-07-29T05:40:33;2.50;;;2.40;;
6374;SDS011;35400;45.472;-122.822;2022-07-29T05:43:00;3.22;;;2.50;;
6374;SDS011;35400;45.472;-122.822;2022-07-29T05:45:26;2.75;;;2.53;;
6374;SDS011;35400;45.472;-122.822;2022-07-29T05:47:52;2.45;;;2.25;;
6374;SDS011;35400;45.472;-122.822;2022-07-29T05:50:19;2.85;;;2.65;;
6374;SDS011;35400;45.472;-122.822;2022-07-29T05:52:45;2.50;;;2.30;;
6374;SDS011;35400;45.472;-122.822;2022-07-29T05:55:12;2.75;;;2.55;;
6374;SDS011;35400;45.472;-122.822;2022-07-29T05:57:38;2.95;;;2.47;;
6374;SDS011;35400;45.472;-122.822;2022-07-29T06:00:05;2.75;;;2.53;;
6374;SDS011;35400;45.472;-122.822;2022-07-29T06:02:32;2.42;;;2.33;;
6374;SDS011;35400;45.472;-122.822;2022-07-29T06:04:58;2.78;;;2.58;;
6374;SDS011;35400;45.472;-122.822;2022-07-29T06:07:24;2.80;;;2.60;;
6374;SDS011;35400;45.472;-122.822;2022-07-29T06:09:51;2.70;;;2.50;;
6374;SDS011;35400;45.472;-122.822;2022-07-29T06:12:17;2.30;;;2.20;;
6374;SDS011;35400;45.472;-122.822;2022-07-29T06:14:45;2.70;;;2.50;;
6374;SDS011;35400;45.472;-122.822;2022-07-29T06:17:11;2.53;;;2.33;;
6374;SDS011;35400;45.472;-122.822;2022-07-29T06:19:37;2.60;;;2.40;;
6374;SDS011;35400;45.472;-122.822;2022-07-29T06:22:04;2.33;;;2.13;;
6374;SDS011;35400;45.472;-122.822;2022-07-29T06:24:30;2.22;;;2.10;;
6374;SDS011;35400;45.472;-122.822;2022-07-29T06:26:57;2.75;;;2.47;;
6374;SDS011;35400;45.472;-122.822;2022-07-29T06:29:23;2.50;;;2.30;;
6374;SDS011;35400;45.472;-122.822;2022-07-29T06:31:50;2.50;;;2.30;;
6374;SDS011;35400;45.472;-122.822;2022-07-29T06:34:16;2.58;;;2.40;;
6374;SDS011;35400;45.472;-122.822;2022-07-29T06:36:43;2.20;;;2.10;;
6374;SDS011;35400;45.472;-122.822;2022-07-29T06:39:09;2.13;;;2.03;;
6374;SDS011;35400;45.472;-122.822;2022-07-29T06:41:35;2.20;;;2.00;;
6374;SDS011;35400;45.472;-122.822;2022-07-29T06:44:02;2.40;;;2.30;;
6374;SDS011;35400;45.472;-122.822;2022-07-29T06:46:29;2.58;;;2.40;;
6374;SDS011;35400;45.472;-122.822;2022-07-29T06:48:56;2.50;;;2.30;;
6374;SDS011;35400;45.472;-122.822;2022-07-29T06:51:22;2.40;;;2.20;;
6374;SDS011;35400;45.472;-122.822;2022-07-29T06:53:50;2.20;;;2.10;;
6374;SDS011;35400;45.472;-122.822;2022-07-29T06:56:17;2.50;;;2.40;;
6374;SDS011;35400;45.472;-122.822;2022-07-29T06:58:43;3.17;;;2.85;;
6374;SDS011;35400;45.472;-122.822;2022-07-29T07:01:10;3.40;;;2.40;;
6374;SDS011;35400;45.472;-122.822;2022-07-29T07:03:36;2.58;;;2.45;;
6374;SDS011;35400;45.472;-122.822;2022-07-29T07:06:02;2.97;;;2.80;;
6374;SDS011;35400;45.472;-122.822;2022-07-29T07:08:29;2.45;;;2.33;;
6374;SDS011;35400;45.472;-122.822;2022-07-29T07:10:55;2.80;;;2.60;;
6374;SDS011;35400;45.472;-122.822;2022-07-29T07:13:22;2.75;;;2.65;;
6374;SDS011;35400;45.472;-122.822;2022-07-29T07:15:49;2.85;;;2.30;;
6374;SDS011;35400;45.472;-122.822;2022-07-29T07:18:17;2.10;;;2.00;;
6374;SDS011;35400;45.472;-122.822;2022-07-29T07:20:44;3.03;;;2.83;;
6374;SDS011;35400;45.472;-122.822;2022-07-29T07:23:11;2.63;;;2.42;;
6374;SDS011;35400;45.472;-122.822;2022-07-29T07:25:37;2.85;;;2.45;;
6374;SDS011;35400;45.472;-122.822;2022-07-29T07:28:03;2.83;;;2.53;;
6374;SDS011;35400;45.472;-122.822;2022-07-29T07:30:30;2.70;;;2.35;;
6374;SDS011;35400;45.472;-122.822;2022-07-29T07:32:56;2.80;;;2.60;;
6374;SDS011;35400;45.472;-122.822;2022-07-29T07:35:23;2.45;;;2.35;;
6374;SDS011;35400;45.472;-122.822;2022-07-29T07:37:49;2.42;;;2.33;;
6374;SDS011;35400;45.472;-122.822;2022-07-29T07:40:16;2.83;;;2.63;;
6374;SDS011;35400;45.472;-122.822;2022-07-29T07:42:42;2.45;;;2.30;;
6374;SDS011;35400;45.472;-122.822;2022-07-29T07:45:08;2.95;;;2.70;;
6374;SDS011;35400;45.472;-122.822;2022-07-29T07:47:36;2.83;;;2.55;;
6374;SDS011;35400;45.472;-122.822;2022-07-29T07:50:04;2.30;;;2.20;;
6374;SDS011;35400;45.472;-122.822;2022-07-29T07:52:31;2.80;;;2.53;;
6374;SDS011;35400;45.472;-122.822;2022-07-29T07:54:58;3.80;;;2.50;;
6374;SDS011;35400;45.472;-122.822;2022-07-29T07:57:25;2.25;;;2.15;;
6374;SDS011;35400;45.472;-122.822;2022-07-29T07:59:52;2.40;;;2.30;;
6374;SDS011;35400;45.472;-122.822;2022-07-29T08:02:18;2.50;;;2.30;;
6374;SDS011;35400;45.472;-122.822;2022-07-29T08:04:44;2.05;;;1.95;;
6374;SDS011;35400;45.472;-122.822;2022-07-29T08:07:11;2.42;;;2.22;;
6374;SDS011;35400;45.472;-122.822;2022-07-29T08:09:39;2.65;;;2.47;;
6374;SDS011;35400;45.472;-122.822;2022-07-29T08:12:06;2.80;;;2.60;;
6374;SDS011;35400;45.472;-122.822;2022-07-29T08:14:32;2.67;;;2.50;;
6374;SDS011;35400;45.472;-122.822;2022-07-29T08:16:59;2.45;;;2.25;;
6374;SDS011;35400;45.472;-122.822;2022-07-29T08:19:25;2.22;;;2.13;;
6374;SDS011;35400;45.472;-122.822;2022-07-29T08:21:52;2.50;;;2.40;;
6374;SDS011;35400;45.472;-122.822;2022-07-29T08:24:20;2.70;;;2.60;;
6374;SDS011;35400;45.472;-122.822;2022-07-29T08:27:05;2.60;;;2.40;;
6374;SDS011;35400;45.472;-122.822;2022-07-29T08:29:31;3.33;;;2.45;;
6374;SDS011;35400;45.472;-122.822;2022-07-29T08:31:58;2.53;;;2.40;;
6374;SDS011;35400;45.472;-122.822;2022-07-29T08:34:24;2.40;;;2.30;;
6374;SDS011;35400;45.472;-122.822;2022-07-29T08:36:51;2.40;;;2.20;;
6374;SDS011;35400;45.472;-122.822;2022-07-29T08:39:17;2.58;;;2.38;;
6374;SDS011;35400;45.472;-122.822;2022-07-29T08:41:44;2.67;;;2.47;;
6374;SDS011;35400;45.472;-122.822;2022-07-29T08:44:10;2.47;;;2.38;;
6374;SDS011;35400;45.472;-122.822;2022-07-29T08:46:37;2.40;;;2.30;;
6374;SDS011;35400;45.472;-122.822;2022-07-29T08:49:04;3.22;;;3.03;;
6374;SDS011;35400;45.472;-122.822;2022-07-29T08:51:31;2.55;;;2.42;;
6374;SDS011;35400;45.472;-122.822;2022-07-29T08:54:01;3.22;;;2.50;;
6374;SDS011;35400;45.472;-122.822;2022-07-29T08:56:28;3.58;;;2.78;;
6374;SDS011;35400;45.472;-122.822;2022-07-29T08:58:55;2.75;;;2.55;;
6374;SDS011;35400;45.472;-122.822;2022-07-29T09:01:24;2.88;;;2.67;;
6374;SDS011;35400;45.472;-122.822;2022-07-29T09:03:55;3.08;;;2.88;;
6374;SDS011;35400;45.472;-122.822;2022-07-29T09:06:23;2.95;;;2.75;;
6374;SDS011;35400;45.472;-122.822;2022-07-29T09:08:54;3.10;;;2.80;;
6374;SDS011;35400;45.472;-122.822;2022-07-29T09:11:25;3.13;;;2.50;;
6374;SDS011;35400;45.472;-122.822;2022-07-29T09:13:53;2.90;;;2.70;;
6374;SDS011;35400;45.472;-122.822;2022-07-29T09:16:19;2.63;;;2.42;;
6374;SDS011;35400;45.472;-122.822;2022-07-29T09:18:46;2.83;;;2.60;;
6374;SDS011;35400;45.472;-122.822;2022-07-29T09:21:14;2.50;;;2.30;;
6374;SDS011;35400;45.472;-122.822;2022-07-29T09:24:17;2.42;;;2.33;;
6374;SDS011;35400;45.472;-122.822;2022-07-29T09:26:44;2.72;;;2.50;;
6374;SDS011;35400;45.472;-122.822;2022-07-29T09:29:21;2.90;;;2.70;;
6374;SDS011;35400;45.472;-122.822;2022-07-29T09:31:50;3.13;;;2.80;;
6374;SDS011;35400;45.472;-122.822;2022-07-29T09:34:23;2.85;;;2.65;;
6374;SDS011;35400;45.472;-122.822;2022-07-29T09:36:51;3.05;;;2.85;;
6374;SDS011;35400;45.472;-122.822;2022-07-29T09:39:28;3.03;;;2.65;;
6374;SDS011;35400;45.472;-122.822;2022-07-29T09:41:58;2.67;;;2.58;;
6374;SDS011;35400;45.472;-122.822;2022-07-29T09:47:40;2.88;;;2.67;;
6374;SDS011;35400;45.472;-122.822;2022-07-29T09:50:10;3.13;;;2.85;;
6374;SDS011;35400;45.472;-122.822;2022-07-29T09:52:50;2.75;;;2.63;;
6374;SDS011;35400;45.472;-122.822;2022-07-29T09:55:18;3.25;;;2.95;;
6374;SDS011;35400;45.472;-122.822;2022-07-29T09:57:45;2.92;;;2.72;;
6374;SDS011;35400;45.472;-122.822;2022-07-29T10:00:13;3.35;;;3.05;;
6374;SDS011;35400;45.472;-122.822;2022-07-29T10:02:43;3.42;;;3.22;;
6374;SDS011;35400;45.472;-122.822;2022-07-29T10:05:22;2.53;;;2.40;;
6374;SDS011;35400;45.472;-122.822;2022-07-29T10:07:54;2.65;;;2.45;;
6374;SDS011;35400;45.472;-122.822;2022-07-29T10:10:23;3.30;;;2.65;;
6374;SDS011;35400;45.472;-122.822;2022-07-29T10:12:54;2.80;;;2.60;;
6374;SDS011;35400;45.472;-122.822;2022-07-29T10:15:23;2.85;;;2.65;;
6374;SDS011;35400;45.472;-122.822;2022-07-29T10:17:52;2.60;;;2.40;;
6374;SDS011;35400;45.472;-122.822;2022-07-29T10:20:19;3.10;;;2.90;;
6374;SDS011;35400;45.472;-122.822;2022-07-29T10:22:47;3.45;;;3.15;;
6374;SDS011;35400;45.472;-122.822;2022-07-29T10:25:15;3.10;;;2.90;;
6374;SDS011;35400;45.472;-122.822;2022-07-29T10:27:45;3.47;;;3.05;;
6374;SDS011;35400;45.472;-122.822;2022-07-29T10:30:15;3.03;;;2.83;;
6374;SDS011;35400;45.472;-122.822;2022-07-29T10:35:39;3.65;;;3.35;;
6374;SDS011;35400;45.472;-122.822;2022-07-29T10:43:59;2.88;;;2.67;;
6374;SDS011;35400;45.472;-122.822;2022-07-29T10:46:29;3.10;;;2.90;;
6374;SDS011;35400;45.472;-122.822;2022-07-29T10:57:18;3.30;;;3.10;;
6374;SDS011;35400;45.472;-122.822;2022-07-29T10:59:47;3.38;;;3.15;;
6374;SDS011;35400;45.472;-122.822;2022-07-29T11:05:01;3.33;;;3.13;;
6374;SDS011;35400;45.472;-122.822;2022-07-29T11:08:44;3.45;;;3.25;;
6374;SDS011;35400;45.472;-122.822;2022-07-29T11:10:45;3.60;;;3.40;;
6374;SDS011;35400;45.472;-122.822;2022-07-29T11:13:12;3.78;;;3.38;;
6374;SDS011;35400;45.472;-122.822;2022-07-29T11:15:58;3.75;;;3.45;;
6374;SDS011;35400;45.472;-122.822;2022-07-29T11:18:25;3.83;;;3.53;;
6374;SDS011;35400;45.472;-122.822;2022-07-29T11:20:51;3.53;;;3.33;;
6374;SDS011;35400;45.472;-122.822;2022-07-29T11:26:17;3.70;;;3.40;;
6374;SDS011;35400;45.472;-122.822;2022-07-29T11:39:40;3.28;;;2.70;;
6374;SDS011;35400;45.472;-122.822;2022-07-29T11:44:57;3.08;;;2.88;;
6374;SDS011;35400;45.472;-122.822;2022-07-29T11:47:39;5.07;;;2.83;;
6374;SDS011;35400;45.472;-122.822;2022-07-29T11:50:18;3.75;;;3.45;;
6374;SDS011;35400;45.472;-122.822;2022-07-29T11:52:58;3.67;;;3.20;;
6374;SDS011;35400;45.472;-122.822;2022-07-29T11:55:27;3.42;;;3.13;;
6374;SDS011;35400;45.472;-122.822;2022-07-29T11:57:59;3.47;;;3.28;;
6374;SDS011;35400;45.472;-122.822;2022-07-29T12:03:07;3.67;;;3.30;;
6374;SDS011;35400;45.472;-122.822;2022-07-29T12:05:43;3.55;;;3.25;;
6374;SDS011;35400;45.472;-122.822;2022-07-29T12:10:38;3.90;;;3.60;;
6374;SDS011;35400;45.472;-122.822;2022-07-29T12:13:05;3.45;;;3.15;;
6374;SDS011;35400;45.472;-122.822;2022-07-29T12:15:33;3.67;;;3.47;;
6374;SDS011;35400;45.472;-122.822;2022-07-29T12:18:09;3.55;;;3.15;;
6374;SDS011;35400;45.472;-122.822;2022-07-29T12:20:39;3.08;;;2.85;;
6374;SDS011;35400;45.472;-122.822;2022-07-29T12:23:06;3.60;;;3.35;;
6374;SDS011;35400;45.472;-122.822;2022-07-29T12:25:34;3.15;;;2.90;;
6374;SDS011;35400;45.472;-122.822;2022-07-29T12:28:05;3.80;;;3.50;;
6374;SDS011;35400;45.472;-122.822;2022-07-29T12:30:41;3.30;;;3.10;;
6374;SDS011;35400;45.472;-122.822;2022-07-29T12:33:20;3.42;;;3.13;;
6374;SDS011;35400;45.472;-122.822;2022-07-29T12:35:50;3.28;;;3.05;;
6374;SDS011;35400;45.472;-122.822;2022-07-29T12:38:19;3.58;;;3.28;;
6374;SDS011;35400;45.472;-122.822;2022-07-29T12:40:47;3.58;;;3.28;;
6374;SDS011;35400;45.472;-122.822;2022-07-29T12:43:17;3.33;;;3.10;;
6374;SDS011;35400;45.472;-122.822;2022-07-29T12:45:46;3.17;;;2.97;;
6374;SDS011;35400;45.472;-122.822;2022-07-29T12:48:15;3.38;;;3.13;;
6374;SDS011;35400;45.472;-122.822;2022-07-29T12:50:56;2.80;;;2.63;;
6374;SDS011;35400;45.472;-122.822;2022-07-29T12:53:24;3.20;;;3.00;;
6374;SDS011;35400;45.472;-122.822;2022-07-29T12:55:52;3.83;;;3.63;;
6374;SDS011;35400;45.472;-122.822;2022-07-29T12:58:36;3.42;;;3.13;;
6374;SDS011;35400;45.472;-122.822;2022-07-29T13:03:50;3.63;;;3.30;;
6374;SDS011;35400;45.472;-122.822;2022-07-29T13:09:05;4.00;;;3.47;;
6374;SDS011;35400;45.472;-122.822;2022-07-29T13:11:44;3.58;;;3.35;;
6374;SDS011;35400;45.472;-122.822;2022-07-29T13:14:13;3.55;;;3.28;;
6374;SDS011;35400;45.472;-122.822;2022-07-29T13:17:06;3.37;;;3.00;;
6374;SDS011;35400;45.472;-122.822;2022-07-29T13:20:04;3.13;;;2.92;;
6374;SDS011;35400;45.472;-122.822;2022-07-29T13:22:31;3.20;;;3.00;;
6374;SDS011;35400;45.472;-122.822;2022-07-29T13:24:58;3.90;;;3.33;;
6374;SDS011;35400;45.472;-122.822;2022-07-29T13:27:30;3.33;;;3.13;;
6374;SDS011;35400;45.472;-122.822;2022-07-29T13:29:58;3.60;;;3.40;;
6374;SDS011;35400;45.472;-122.822;2022-07-29T13:32:26;3.50;;;3.20;;
6374;SDS011;35400;45.472;-122.822;2022-07-29T13:34:55;3.50;;;3.20;;
6374;SDS011;35400;45.472;-122.822;2022-07-29T13:37:22;3.40;;;3.20;;
6374;SDS011;35400;45.472;-122.822;2022-07-29T13:39:49;3.57;;;3.27;;
6374;SDS011;35400;45.472;-122.822;2022-07-29T13:42:15;3.40;;;3.10;;
6374;SDS011;35400;45.472;-122.822;2022-07-29T13:44:42;3.65;;;3.45;;
6374;SDS011;35400;45.472;-122.822;2022-07-29T13:47:08;3.63;;;3.33;;
6374;SDS011;35400;45.472;-122.822;2022-07-29T13:49:35;3.80;;;3.47;;
6374;SDS011;35400;45.472;-122.822;2022-07-29T13:52:02;3.33;;;3.13;;
6374;SDS011;35400;45.472;-122.822;2022-07-29T13:54:28;3.30;;;3.08;;
6374;SDS011;35400;45.472;-122.822;2022-07-29T13:56:55;3.45;;;3.25;;
6374;SDS011;35400;45.472;-122.822;2022-07-29T13:59:21;3.88;;;3.50;;
6374;SDS011;35400;45.472;-122.822;2022-07-29T14:01:47;4.43;;;3.70;;
6374;SDS011;35400;45.472;-122.822;2022-07-29T14:04:14;4.00;;;3.70;;
6374;SDS011;35400;45.472;-122.822;2022-07-29T14:06:40;3.58;;;3.38;;
6374;SDS011;35400;45.472;-122.822;2022-07-29T14:09:07;4.32;;;3.78;;
6374;SDS011;35400;45.472;-122.822;2022-07-29T14:11:36;3.97;;;3.67;;
6374;SDS011;35400;45.472;-122.822;2022-07-29T14:14:03;3.97;;;3.67;;
6374;SDS011;35400;45.472;-122.822;2022-07-29T14:16:30;3.95;;;3.67;;
6374;SDS011;35400;45.472;-122.822;2022-07-29T14:18:56;4.18;;;3.88;;
6374;SDS011;35400;45.472;-122.822;2022-07-29T14:21:23;4.15;;;3.85;;
6374;SDS011;35400;45.472;-122.822;2022-07-29T14:23:49;3.80;;;3.40;;
6374;SDS011;35400;45.472;-122.822;2022-07-29T14:26:17;3.90;;;3.45;;
6374;SDS011;35400;45.472;-122.822;2022-07-29T14:28:43;3.45;;;3.25;;
6374;SDS011;35400;45.472;-122.822;2022-07-29T14:31:09;3.85;;;3.65;;
6374;SDS011;35400;45.472;-122.822;2022-07-29T14:33:36;3.85;;;3.58;;
6374;SDS011;35400;45.472;-122.822;2022-07-29T14:36:02;4.40;;;4.00;;
6374;SDS011;35400;45.472;-122.822;2022-07-29T14:38:29;4.55;;;4.25;;
6374;SDS011;35400;45.472;-122.822;2022-07-29T14:40:55;4.70;;;4.30;;
6374;SDS011;35400;45.472;-122.822;2022-07-29T14:43:22;4.40;;;4.00;;
6374;SDS011;35400;45.472;-122.822;2022-07-29T14:45:48;4.68;;;4.28;;
6374;SDS011;35400;45.472;-122.822;2022-07-29T14:48:15;4.38;;;4.07;;
6374;SDS011;35400;45.472;-122.822;2022-07-29T14:50:41;4.63;;;4.22;;
6374;SDS011;35400;45.472;-122.822;2022-07-29T14:53:08;4.03;;;3.70;;
6374;SDS011;35400;45.472;-122.822;2022-07-29T14:55:34;4.47;;;4.18;;
6374;SDS011;35400;45.472;-122.822;2022-07-29T14:58:01;4.72;;;3.97;;
6374;SDS011;35400;45.472;-122.822;2022-07-29T15:00:27;4.20;;;3.60;;
6374;SDS011;35400;45.472;-122.822;2022-07-29T15:02:57;5.47;;;3.75;;
6374;SDS011;35400;45.472;-122.822;2022-07-29T15:05:27;4.10;;;3.70;;
6374;SDS011;35400;45.472;-122.822;2022-07-29T15:07:53;4.25;;;3.85;;
6374;SDS011;35400;45.472;-122.822;2022-07-29T15:10:20;4.07;;;3.72;;
6374;SDS011;35400;45.472;-122.822;2022-07-29T15:12:46;3.90;;;3.60;;
6374;SDS011;35400;45.472;-122.822;2022-07-29T15:15:13;3.72;;;3.38;;
6374;SDS011;35400;45.472;-122.822;2022-07-29T15:17:39;3.67;;;3.38;;
6374;SDS011;35400;45.472;-122.822;2022-07-29T15:20:06;3.72;;;3.42;;
6374;SDS011;35400;45.472;-122.822;2022-07-29T15:22:32;3.30;;;3.00;;
6374;SDS011;35400;45.472;-122.822;2022-07-29T15:24:59;3.25;;;2.95;;
6374;SDS011;35400;45.472;-122.822;2022-07-29T15:27:25;3.28;;;2.95;;
6374;SDS011;35400;45.472;-122.822;2022-07-29T15:29:52;4.10;;;2.63;;
6374;SDS011;35400;45.472;-122.822;2022-07-29T15:32:18;3.20;;;3.00;;
6374;SDS011;35400;45.472;-122.822;2022-07-29T15:34:45;3.28;;;3.08;;
6374;SDS011;35400;45.472;-122.822;2022-07-29T15:37:12;2.92;;;2.72;;